sensor_id;sensor_type;location;lat;lon;timestamp;P1;durP1;ratioP1;P2;durP2;ratioP2
57832;SDS011;43667;53.036;6.740;2023-09-19T00:00:20;8.35;;;1.77;;
57832;SDS011;43667;53.036;6.740;2023-09-19T00:02:52;7.15;;;1.70;;
57832;SDS011;43667;53.036;6.740;2023-09-19T00:05:18;9.00;;;1.63;;
57832;SDS011;43667;53.036;6.740;2023-09-19T00:07:49;7.28;;;1.52;;
57832;SDS011;43667;53.036;6.740;2023-09-19T00:10:16;8.30;;;1.33;;
57832;SDS011;43667;53.036;6.740;2023-09-19T00:12:45;11.90;;;1.70;;
57832;SDS011;43667;53.036;6.740;2023-09-19T00:15:11;8.32;;;1.60;;
57832;SDS011;43667;53.036;6.740;2023-09-19T00:17:37;12.68;;;1.90;;
57832;SDS011;43667;53.036;6.740;2023-09-19T00:20:05;11.10;;;2.05;;
57832;SDS011;43667;53.036;6.740;2023-09-19T00:22:38;9.00;;;1.50;;
57832;SDS011;43667;53.036;6.740;2023-09-19T00:25:04;6.63;;;1.60;;
57832;SDS011;43667;53.036;6.740;2023-09-19T00:27:31;10.00;;;1.80;;
57832;SDS011;43667;53.036;6.740;2023-09-19T00:29:58;10.45;;;2.13;;
57832;SDS011;43667;53.036;6.740;2023-09-19T00:32:25;9.80;;;1.83;;
57832;SDS011;43667;53.036;6.740;2023-09-19T00:34:56;8.40;;;1.73;;
57832;SDS011;43667;53.036;6.740;2023-09-19T00:37:22;9.77;;;1.67;;
57832;SDS011;43667;53.036;6.740;2023-09-19T00:39:49;8.20;;;1.92;;
57832;SDS011;43667;53.036;6.740;2023-09-19T00:42:21;9.98;;;1.73;;
57832;SDS011;43667;53.036;6.740;2023-09-19T00:44:47;10.25;;;1.70;;
57832;SDS011;43667;53.036;6.740;2023-09-19T00:47:16;13.15;;;2.30;;
57832;SDS011;43667;53.036;6.740;2023-09-19T00:49:43;9.85;;;2.33;;
57832;SDS011;43667;53.036;6.740;2023-09-19T00:52:10;12.52;;;2.00;;
57832;SDS011;43667;53.036;6.740;2023-09-19T00:54:36;11.32;;;2.72;;
57832;SDS011;43667;53.036;6.740;2023-09-19T00:57:02;7.07;;;1.52;;
57832;SDS011;43667;53.036;6.740;2023-09-19T00:59:28;10.38;;;1.55;;
57832;SDS011;43667;53.036;6.740;2023-09-19T01:01:56;10.55;;;1.83;;
57832;SDS011;43667;53.036;6.740;2023-09-19T01:04:22;12.25;;;2.00;;
57832;SDS011;43667;53.036;6.740;2023-09-19T01:06:49;11.60;;;1.85;;
57832;SDS011;43667;53.036;6.740;2023-09-19T01:09:19;9.75;;;1.73;;
57832;SDS011;43667;53.036;6.740;2023-09-19T01:11:46;8.52;;;1.70;;
57832;SDS011;43667;53.036;6.740;2023-09-19T01:23:04;10.10;;;1.73;;
57832;SDS011;43667;53.036;6.740;2023-09-19T01:30:47;11.70;;;3.22;;
57832;SDS011;43667;53.036;6.740;2023-09-19T01:33:14;16.92;;;2.70;;
57832;SDS011;43667;53.036;6.740;2023-09-19T01:35:42;13.23;;;2.40;;
57832;SDS011;43667;53.036;6.740;2023-09-19T01:38:08;9.43;;;2.08;;
57832;SDS011;43667;53.036;6.740;2023-09-19T01:40:43;12.93;;;2.53;;
57832;SDS011;43667;53.036;6.740;2023-09-19T01:43:20;10.27;;;2.30;;
57832;SDS011;43667;53.036;6.740;2023-09-19T01:45:57;9.27;;;2.63;;
57832;SDS011;43667;53.036;6.740;2023-09-19T01:48:42;15.35;;;2.53;;
57832;SDS011;43667;53.036;6.740;2023-09-19T01:51:13;13.25;;;2.72;;
57832;SDS011;43667;53.036;6.740;2023-09-19T01:53:50;12.48;;;3.35;;
57832;SDS011;43667;53.036;6.740;2023-09-19T01:56:21;13.20;;;2.47;;
57832;SDS011;43667;53.036;6.740;2023-09-19T01:58:48;11.00;;;2.55;;
57832;SDS011;43667;53.036;6.740;2023-09-19T02:01:17;11.30;;;2.28;;
57832;SDS011;43667;53.036;6.740;2023-09-19T02:03:44;17.27;;;2.78;;
57832;SDS011;43667;53.036;6.740;2023-09-19T02:06:14;14.85;;;2.55;;
57832;SDS011;43667;53.036;6.740;2023-09-19T02:08:42;12.15;;;2.40;;
57832;SDS011;43667;53.036;6.740;2023-09-19T02:11:10;13.27;;;2.38;;
57832;SDS011;43667;53.036;6.740;2023-09-19T02:13:35;10.43;;;2.00;;
57832;SDS011;43667;53.036;6.740;2023-09-19T02:16:02;14.30;;;2.40;;
57832;SDS011;43667;53.036;6.740;2023-09-19T02:18:29;13.20;;;2.53;;
57832;SDS011;43667;53.036;6.740;2023-09-19T02:20:55;10.80;;;2.20;;
57832;SDS011;43667;53.036;6.740;2023-09-19T02:23:24;12.38;;;2.45;;
57832;SDS011;43667;53.036;6.740;2023-09-19T02:25:54;15.30;;;1.90;;
57832;SDS011;43667;53.036;6.740;2023-09-19T02:28:20;11.02;;;2.20;;
57832;SDS011;43667;53.036;6.740;2023-09-19T02:30:47;12.98;;;2.33;;
57832;SDS011;43667;53.036;6.740;2023-09-19T02:33:16;14.60;;;2.50;;
57832;SDS011;43667;53.036;6.740;2023-09-19T02:35:42;11.65;;;2.35;;
57832;SDS011;43667;53.036;6.740;2023-09-19T02:38:08;15.68;;;2.35;;
57832;SDS011;43667;53.036;6.740;2023-09-19T02:40:37;14.13;;;2.17;;
57832;SDS011;43667;53.036;6.740;2023-09-19T02:43:03;18.48;;;3.08;;
57832;SDS011;43667;53.036;6.740;2023-09-19T02:45:30;10.77;;;2.45;;
57832;SDS011;43667;53.036;6.740;2023-09-19T02:47:56;20.38;;;3.92;;
57832;SDS011;43667;53.036;6.740;2023-09-19T02:50:23;13.05;;;2.15;;
57832;SDS011;43667;53.036;6.740;2023-09-19T02:52:49;13.32;;;2.17;;
57832;SDS011;43667;53.036;6.740;2023-09-19T02:55:16;12.82;;;2.35;;
57832;SDS011;43667;53.036;6.740;2023-09-19T02:57:49;14.00;;;2.90;;
57832;SDS011;43667;53.036;6.740;2023-09-19T03:00:16;13.07;;;2.83;;
57832;SDS011;43667;53.036;6.740;2023-09-19T03:02:42;14.95;;;2.58;;
57832;SDS011;43667;53.036;6.740;2023-09-19T03:05:09;15.60;;;2.40;;
57832;SDS011;43667;53.036;6.740;2023-09-19T03:07:36;15.73;;;2.63;;
57832;SDS011;43667;53.036;6.740;2023-09-19T03:10:03;17.02;;;2.75;;
57832;SDS011;43667;53.036;6.740;2023-09-19T03:12:30;11.90;;;3.65;;
57832;SDS011;43667;53.036;6.740;2023-09-19T03:14:57;9.13;;;2.20;;
57832;SDS011;43667;53.036;6.740;2023-09-19T03:17:24;14.55;;;3.15;;
57832;SDS011;43667;53.036;6.740;2023-09-19T03:19:50;10.63;;;2.75;;
57832;SDS011;43667;53.036;6.740;2023-09-19T03:22:16;11.68;;;2.58;;
57832;SDS011;43667;53.036;6.740;2023-09-19T03:24:43;11.85;;;2.80;;
57832;SDS011;43667;53.036;6.740;2023-09-19T03:27:09;10.18;;;2.38;;
57832;SDS011;43667;53.036;6.740;2023-09-19T03:29:35;11.63;;;2.75;;
57832;SDS011;43667;53.036;6.740;2023-09-19T03:32:02;8.73;;;2.35;;
57832;SDS011;43667;53.036;6.740;2023-09-19T03:34:28;14.52;;;2.75;;
57832;SDS011;43667;53.036;6.740;2023-09-19T03:36:54;12.02;;;2.70;;
57832;SDS011;43667;53.036;6.740;2023-09-19T03:39:20;8.90;;;2.45;;
57832;SDS011;43667;53.036;6.740;2023-09-19T03:41:46;11.05;;;2.50;;
57832;SDS011;43667;53.036;6.740;2023-09-19T03:44:13;12.68;;;2.45;;
57832;SDS011;43667;53.036;6.740;2023-09-19T03:46:40;10.45;;;2.28;;
57832;SDS011;43667;53.036;6.740;2023-09-19T03:49:06;12.38;;;2.00;;
57832;SDS011;43667;53.036;6.740;2023-09-19T03:51:32;12.75;;;2.53;;
57832;SDS011;43667;53.036;6.740;2023-09-19T03:53:59;13.15;;;2.85;;
57832;SDS011;43667;53.036;6.740;2023-09-19T03:56:25;9.88;;;2.70;;
57832;SDS011;43667;53.036;6.740;2023-09-19T03:58:51;10.80;;;2.42;;
57832;SDS011;43667;53.036;6.740;2023-09-19T04:01:17;12.60;;;2.45;;
57832;SDS011;43667;53.036;6.740;2023-09-19T04:03:43;11.15;;;2.30;;
57832;SDS011;43667;53.036;6.740;2023-09-19T04:06:13;13.60;;;2.53;;
57832;SDS011;43667;53.036;6.740;2023-09-19T04:08:39;16.27;;;3.42;;
57832;SDS011;43667;53.036;6.740;2023-09-19T04:11:05;9.52;;;1.95;;
57832;SDS011;43667;53.036;6.740;2023-09-19T04:13:31;8.05;;;2.65;;
57832;SDS011;43667;53.036;6.740;2023-09-19T04:15:57;14.48;;;2.40;;
57832;SDS011;43667;53.036;6.740;2023-09-19T04:18:23;9.63;;;2.40;;
57832;SDS011;43667;53.036;6.740;2023-09-19T04:20:50;6.55;;;1.63;;
57832;SDS011;43667;53.036;6.740;2023-09-19T04:23:16;8.82;;;2.00;;
57832;SDS011;43667;53.036;6.740;2023-09-19T04:25:42;8.68;;;1.98;;
57832;SDS011;43667;53.036;6.740;2023-09-19T04:28:08;10.10;;;2.50;;
57832;SDS011;43667;53.036;6.740;2023-09-19T04:30:36;19.90;;;3.22;;
57832;SDS011;43667;53.036;6.740;2023-09-19T04:33:02;8.82;;;2.30;;
57832;SDS011;43667;53.036;6.740;2023-09-19T04:35:28;13.75;;;2.60;;
57832;SDS011;43667;53.036;6.740;2023-09-19T04:37:56;9.38;;;2.65;;
57832;SDS011;43667;53.036;6.740;2023-09-19T04:40:23;9.45;;;2.25;;
57832;SDS011;43667;53.036;6.740;2023-09-19T04:42:55;15.68;;;2.50;;
57832;SDS011;43667;53.036;6.740;2023-09-19T04:45:22;9.55;;;2.60;;
57832;SDS011;43667;53.036;6.740;2023-09-19T04:47:48;12.48;;;2.90;;
57832;SDS011;43667;53.036;6.740;2023-09-19T04:50:14;11.13;;;2.55;;
57832;SDS011;43667;53.036;6.740;2023-09-19T04:52:42;13.30;;;2.95;;
57832;SDS011;43667;53.036;6.740;2023-09-19T04:55:15;13.13;;;2.63;;
57832;SDS011;43667;53.036;6.740;2023-09-19T04:57:47;11.82;;;2.90;;
57832;SDS011;43667;53.036;6.740;2023-09-19T05:00:14;12.95;;;2.67;;
57832;SDS011;43667;53.036;6.740;2023-09-19T05:02:41;14.30;;;2.33;;
57832;SDS011;43667;53.036;6.740;2023-09-19T05:05:08;12.35;;;3.03;;
57832;SDS011;43667;53.036;6.740;2023-09-19T05:07:35;11.30;;;2.58;;
57832;SDS011;43667;53.036;6.740;2023-09-19T05:10:02;15.35;;;3.55;;
57832;SDS011;43667;53.036;6.740;2023-09-19T05:12:34;10.88;;;2.72;;
57832;SDS011;43667;53.036;6.740;2023-09-19T05:15:01;12.15;;;3.28;;
57832;SDS011;43667;53.036;6.740;2023-09-19T05:17:29;16.25;;;2.85;;
57832;SDS011;43667;53.036;6.740;2023-09-19T05:19:56;9.23;;;2.42;;
57832;SDS011;43667;53.036;6.740;2023-09-19T05:22:36;11.68;;;2.70;;
57832;SDS011;43667;53.036;6.740;2023-09-19T05:25:05;17.00;;;3.97;;
57832;SDS011;43667;53.036;6.740;2023-09-19T05:27:31;13.38;;;2.78;;
57832;SDS011;43667;53.036;6.740;2023-09-19T05:29:58;12.10;;;2.90;;
57832;SDS011;43667;53.036;6.740;2023-09-19T05:32:24;13.02;;;3.03;;
57832;SDS011;43667;53.036;6.740;2023-09-19T05:34:50;14.98;;;2.85;;
57832;SDS011;43667;53.036;6.740;2023-09-19T05:37:21;14.38;;;3.03;;
57832;SDS011;43667;53.036;6.740;2023-09-19T05:39:48;12.38;;;3.03;;
57832;SDS011;43667;53.036;6.740;2023-09-19T05:42:14;14.57;;;3.30;;
57832;SDS011;43667;53.036;6.740;2023-09-19T05:44:40;16.80;;;4.20;;
57832;SDS011;43667;53.036;6.740;2023-09-19T05:47:06;16.08;;;3.70;;
57832;SDS011;43667;53.036;6.740;2023-09-19T05:49:34;16.05;;;3.42;;
57832;SDS011;43667;53.036;6.740;2023-09-19T05:52:03;13.77;;;3.25;;
57832;SDS011;43667;53.036;6.740;2023-09-19T05:54:29;14.73;;;3.42;;
57832;SDS011;43667;53.036;6.740;2023-09-19T05:56:55;12.25;;;2.88;;
57832;SDS011;43667;53.036;6.740;2023-09-19T05:59:23;14.85;;;3.38;;
57832;SDS011;43667;53.036;6.740;2023-09-19T06:01:49;11.50;;;2.83;;
57832;SDS011;43667;53.036;6.740;2023-09-19T06:04:17;16.38;;;2.97;;
57832;SDS011;43667;53.036;6.740;2023-09-19T06:06:44;13.05;;;2.63;;
57832;SDS011;43667;53.036;6.740;2023-09-19T06:09:10;15.35;;;3.53;;
57832;SDS011;43667;53.036;6.740;2023-09-19T06:11:36;12.70;;;2.47;;
57832;SDS011;43667;53.036;6.740;2023-09-19T06:14:05;12.20;;;2.78;;
57832;SDS011;43667;53.036;6.740;2023-09-19T06:16:31;11.05;;;2.67;;
57832;SDS011;43667;53.036;6.740;2023-09-19T06:18:57;16.85;;;2.78;;
57832;SDS011;43667;53.036;6.740;2023-09-19T06:21:25;9.50;;;2.47;;
57832;SDS011;43667;53.036;6.740;2023-09-19T06:23:51;17.23;;;2.83;;
57832;SDS011;43667;53.036;6.740;2023-09-19T06:26:17;14.27;;;2.63;;
57832;SDS011;43667;53.036;6.740;2023-09-19T06:28:43;11.27;;;2.10;;
57832;SDS011;43667;53.036;6.740;2023-09-19T06:31:10;16.17;;;3.33;;
57832;SDS011;43667;53.036;6.740;2023-09-19T06:33:36;13.80;;;2.85;;
57832;SDS011;43667;53.036;6.740;2023-09-19T06:36:05;13.63;;;2.45;;
57832;SDS011;43667;53.036;6.740;2023-09-19T06:38:31;14.80;;;3.53;;
57832;SDS011;43667;53.036;6.740;2023-09-19T06:41:00;11.20;;;2.60;;
57832;SDS011;43667;53.036;6.740;2023-09-19T06:43:29;14.95;;;2.53;;
57832;SDS011;43667;53.036;6.740;2023-09-19T06:45:55;16.13;;;2.78;;
57832;SDS011;43667;53.036;6.740;2023-09-19T06:48:22;16.20;;;2.75;;
57832;SDS011;43667;53.036;6.740;2023-09-19T06:50:53;13.55;;;2.85;;
57832;SDS011;43667;53.036;6.740;2023-09-19T06:53:20;12.02;;;2.60;;
57832;SDS011;43667;53.036;6.740;2023-09-19T06:55:48;13.80;;;2.50;;
57832;SDS011;43667;53.036;6.740;2023-09-19T06:58:15;13.73;;;3.25;;
57832;SDS011;43667;53.036;6.740;2023-09-19T07:00:42;13.05;;;3.10;;
57832;SDS011;43667;53.036;6.740;2023-09-19T07:03:08;13.10;;;2.13;;
57832;SDS011;43667;53.036;6.740;2023-09-19T07:05:37;10.90;;;2.70;;
57832;SDS011;43667;53.036;6.740;2023-09-19T07:08:04;12.52;;;2.60;;
57832;SDS011;43667;53.036;6.740;2023-09-19T07:10:31;15.15;;;2.72;;
57832;SDS011;43667;53.036;6.740;2023-09-19T07:12:57;17.67;;;2.65;;
57832;SDS011;43667;53.036;6.740;2023-09-19T07:15:26;8.98;;;2.30;;
57832;SDS011;43667;53.036;6.740;2023-09-19T07:17:53;18.23;;;2.50;;
57832;SDS011;43667;53.036;6.740;2023-09-19T07:20:19;10.32;;;2.35;;
57832;SDS011;43667;53.036;6.740;2023-09-19T07:22:45;11.45;;;2.20;;
57832;SDS011;43667;53.036;6.740;2023-09-19T07:25:13;14.15;;;2.22;;
57832;SDS011;43667;53.036;6.740;2023-09-19T07:27:40;12.85;;;2.65;;
57832;SDS011;43667;53.036;6.740;2023-09-19T07:30:07;16.08;;;2.60;;
57832;SDS011;43667;53.036;6.740;2023-09-19T07:32:33;14.93;;;2.45;;
57832;SDS011;43667;53.036;6.740;2023-09-19T07:35:01;11.70;;;2.97;;
57832;SDS011;43667;53.036;6.740;2023-09-19T07:37:28;10.15;;;2.97;;
57832;SDS011;43667;53.036;6.740;2023-09-19T07:39:56;12.50;;;3.00;;
57832;SDS011;43667;53.036;6.740;2023-09-19T07:42:21;11.15;;;2.22;;
57832;SDS011;43667;53.036;6.740;2023-09-19T07:44:47;11.32;;;2.35;;
57832;SDS011;43667;53.036;6.740;2023-09-19T07:47:15;11.05;;;2.35;;
57832;SDS011;43667;53.036;6.740;2023-09-19T07:49:41;10.90;;;2.17;;
57832;SDS011;43667;53.036;6.740;2023-09-19T07:52:07;7.70;;;2.03;;
57832;SDS011;43667;53.036;6.740;2023-09-19T07:54:34;13.63;;;2.63;;
57832;SDS011;43667;53.036;6.740;2023-09-19T07:57:01;13.90;;;2.83;;
57832;SDS011;43667;53.036;6.740;2023-09-19T07:59:27;8.30;;;2.40;;
57832;SDS011;43667;53.036;6.740;2023-09-19T08:01:53;10.00;;;1.95;;
57832;SDS011;43667;53.036;6.740;2023-09-19T08:04:19;9.77;;;2.65;;
57832;SDS011;43667;53.036;6.740;2023-09-19T08:06:45;8.32;;;2.33;;
57832;SDS011;43667;53.036;6.740;2023-09-19T08:09:12;17.70;;;2.60;;
57832;SDS011;43667;53.036;6.740;2023-09-19T08:11:46;8.40;;;1.95;;
57832;SDS011;43667;53.036;6.740;2023-09-19T08:14:12;7.32;;;2.03;;
57832;SDS011;43667;53.036;6.740;2023-09-19T08:16:39;10.73;;;2.45;;
57832;SDS011;43667;53.036;6.740;2023-09-19T08:19:07;14.38;;;2.60;;
57832;SDS011;43667;53.036;6.740;2023-09-19T08:21:33;10.40;;;2.20;;
57832;SDS011;43667;53.036;6.740;2023-09-19T08:23:59;10.35;;;2.72;;
57832;SDS011;43667;53.036;6.740;2023-09-19T08:26:26;12.73;;;2.65;;
57832;SDS011;43667;53.036;6.740;2023-09-19T08:28:53;7.85;;;1.83;;
57832;SDS011;43667;53.036;6.740;2023-09-19T08:31:20;10.25;;;2.78;;
57832;SDS011;43667;53.036;6.740;2023-09-19T08:33:47;11.05;;;2.20;;
57832;SDS011;43667;53.036;6.740;2023-09-19T08:36:14;10.13;;;2.25;;
57832;SDS011;43667;53.036;6.740;2023-09-19T08:38:40;12.15;;;2.65;;
57832;SDS011;43667;53.036;6.740;2023-09-19T08:41:07;15.93;;;2.58;;
57832;SDS011;43667;53.036;6.740;2023-09-19T08:43:36;14.82;;;2.90;;
57832;SDS011;43667;53.036;6.740;2023-09-19T08:46:03;10.55;;;2.35;;
57832;SDS011;43667;53.036;6.740;2023-09-19T08:48:31;13.93;;;3.22;;
57832;SDS011;43667;53.036;6.740;2023-09-19T08:51:02;14.15;;;2.45;;
57832;SDS011;43667;53.036;6.740;2023-09-19T08:53:40;14.57;;;2.53;;
57832;SDS011;43667;53.036;6.740;2023-09-19T08:56:10;14.77;;;2.85;;
57832;SDS011;43667;53.036;6.740;2023-09-19T08:59:00;11.30;;;2.72;;
57832;SDS011;43667;53.036;6.740;2023-09-19T09:01:24;12.35;;;2.88;;
57832;SDS011;43667;53.036;6.740;2023-09-19T09:03:52;14.63;;;2.88;;
57832;SDS011;43667;53.036;6.740;2023-09-19T09:06:19;13.13;;;3.08;;
57832;SDS011;43667;53.036;6.740;2023-09-19T09:08:45;8.82;;;2.38;;
57832;SDS011;43667;53.036;6.740;2023-09-19T09:11:12;11.68;;;2.40;;
57832;SDS011;43667;53.036;6.740;2023-09-19T09:13:39;15.60;;;2.97;;
57832;SDS011;43667;53.036;6.740;2023-09-19T09:16:06;13.75;;;2.85;;
57832;SDS011;43667;53.036;6.740;2023-09-19T09:18:32;14.23;;;3.55;;
57832;SDS011;43667;53.036;6.740;2023-09-19T09:20:59;11.73;;;2.30;;
57832;SDS011;43667;53.036;6.740;2023-09-19T09:23:26;10.05;;;2.88;;
57832;SDS011;43667;53.036;6.740;2023-09-19T09:25:55;12.40;;;2.80;;
57832;SDS011;43667;53.036;6.740;2023-09-19T09:28:22;14.10;;;2.95;;
57832;SDS011;43667;53.036;6.740;2023-09-19T09:30:49;13.13;;;3.25;;
57832;SDS011;43667;53.036;6.740;2023-09-19T09:33:15;15.05;;;3.25;;
57832;SDS011;43667;53.036;6.740;2023-09-19T09:38:23;9.73;;;2.45;;
57832;SDS011;43667;53.036;6.740;2023-09-19T09:40:58;14.52;;;2.47;;
57832;SDS011;43667;53.036;6.740;2023-09-19T09:46:11;12.80;;;2.90;;
57832;SDS011;43667;53.036;6.740;2023-09-19T09:48:47;11.77;;;3.35;;
57832;SDS011;43667;53.036;6.740;2023-09-19T09:51:33;14.27;;;3.47;;
57832;SDS011;43667;53.036;6.740;2023-09-19T09:54:15;14.00;;;3.08;;
57832;SDS011;43667;53.036;6.740;2023-09-19T09:56:54;14.15;;;3.05;;
57832;SDS011;43667;53.036;6.740;2023-09-19T09:59:42;13.15;;;2.85;;
57832;SDS011;43667;53.036;6.740;2023-09-19T10:02:11;10.15;;;2.97;;
57832;SDS011;43667;53.036;6.740;2023-09-19T10:04:38;12.57;;;2.40;;
57832;SDS011;43667;53.036;6.740;2023-09-19T10:07:26;13.25;;;3.05;;
57832;SDS011;43667;53.036;6.740;2023-09-19T10:09:53;9.73;;;2.55;;
57832;SDS011;43667;53.036;6.740;2023-09-19T10:12:25;10.45;;;2.30;;
57832;SDS011;43667;53.036;6.740;2023-09-19T10:14:54;12.77;;;2.70;;
57832;SDS011;43667;53.036;6.740;2023-09-19T10:23:33;10.27;;;2.05;;
57832;SDS011;43667;53.036;6.740;2023-09-19T10:25:59;12.85;;;2.45;;
57832;SDS011;43667;53.036;6.740;2023-09-19T10:28:27;12.43;;;2.75;;
57832;SDS011;43667;53.036;6.740;2023-09-19T10:30:54;14.25;;;2.55;;
57832;SDS011;43667;53.036;6.740;2023-09-19T10:33:22;14.48;;;2.63;;
57832;SDS011;43667;53.036;6.740;2023-09-19T10:35:51;10.98;;;2.75;;
57832;SDS011;43667;53.036;6.740;2023-09-19T10:38:17;9.55;;;2.42;;
57832;SDS011;43667;53.036;6.740;2023-09-19T10:40:44;12.40;;;2.65;;
57832;SDS011;43667;53.036;6.740;2023-09-19T10:43:17;8.40;;;2.30;;
57832;SDS011;43667;53.036;6.740;2023-09-19T10:48:10;13.77;;;2.97;;
57832;SDS011;43667;53.036;6.740;2023-09-19T10:50:41;10.85;;;2.35;;
57832;SDS011;43667;53.036;6.740;2023-09-19T10:53:10;10.38;;;2.70;;
57832;SDS011;43667;53.036;6.740;2023-09-19T10:55:37;13.27;;;2.55;;
57832;SDS011;43667;53.036;6.740;2023-09-19T10:58:03;9.80;;;2.40;;
57832;SDS011;43667;53.036;6.740;2023-09-19T11:00:50;11.27;;;2.45;;
57832;SDS011;43667;53.036;6.740;2023-09-19T11:03:17;12.77;;;2.35;;
57832;SDS011;43667;53.036;6.740;2023-09-19T11:05:59;11.77;;;2.58;;
57832;SDS011;43667;53.036;6.740;2023-09-19T11:08:26;14.38;;;2.60;;
57832;SDS011;43667;53.036;6.740;2023-09-19T11:10:52;12.85;;;2.90;;
57832;SDS011;43667;53.036;6.740;2023-09-19T11:26:57;11.00;;;2.10;;
57832;SDS011;43667;53.036;6.740;2023-09-19T11:29:34;9.48;;;2.67;;
57832;SDS011;43667;53.036;6.740;2023-09-19T11:32:01;10.20;;;2.55;;
57832;SDS011;43667;53.036;6.740;2023-09-19T11:37:02;11.30;;;2.15;;
57832;SDS011;43667;53.036;6.740;2023-09-19T11:39:29;8.65;;;2.45;;
57832;SDS011;43667;53.036;6.740;2023-09-19T11:41:55;13.05;;;2.38;;
57832;SDS011;43667;53.036;6.740;2023-09-19T11:44:32;9.63;;;2.13;;
57832;SDS011;43667;53.036;6.740;2023-09-19T11:46:59;14.82;;;2.58;;
57832;SDS011;43667;53.036;6.740;2023-09-19T11:49:28;12.57;;;2.42;;
57832;SDS011;43667;53.036;6.740;2023-09-19T11:51:57;9.95;;;2.15;;
57832;SDS011;43667;53.036;6.740;2023-09-19T11:54:31;14.15;;;2.55;;
57832;SDS011;43667;53.036;6.740;2023-09-19T11:56:57;13.95;;;2.38;;
57832;SDS011;43667;53.036;6.740;2023-09-19T11:59:24;10.40;;;2.55;;
57832;SDS011;43667;53.036;6.740;2023-09-19T12:01:55;8.57;;;1.98;;
57832;SDS011;43667;53.036;6.740;2023-09-19T12:04:38;10.07;;;2.47;;
57832;SDS011;43667;53.036;6.740;2023-09-19T12:07:13;9.20;;;2.28;;
57832;SDS011;43667;53.036;6.740;2023-09-19T12:09:50;11.23;;;2.72;;
57832;SDS011;43667;53.036;6.740;2023-09-19T12:12:31;9.20;;;2.45;;
57832;SDS011;43667;53.036;6.740;2023-09-19T12:14:58;8.95;;;2.45;;
57832;SDS011;43667;53.036;6.740;2023-09-19T12:17:37;8.70;;;2.15;;
57832;SDS011;43667;53.036;6.740;2023-09-19T12:20:04;12.93;;;2.20;;
57832;SDS011;43667;53.036;6.740;2023-09-19T12:22:43;9.98;;;2.50;;
57832;SDS011;43667;53.036;6.740;2023-09-19T12:25:10;10.00;;;2.08;;
57832;SDS011;43667;53.036;6.740;2023-09-19T12:27:47;8.80;;;1.90;;
57832;SDS011;43667;53.036;6.740;2023-09-19T12:30:15;12.52;;;2.95;;
57832;SDS011;43667;53.036;6.740;2023-09-19T12:32:43;11.73;;;2.38;;
57832;SDS011;43667;53.036;6.740;2023-09-19T12:35:09;8.93;;;2.22;;
57832;SDS011;43667;53.036;6.740;2023-09-19T12:37:45;8.10;;;2.08;;
57832;SDS011;43667;53.036;6.740;2023-09-19T12:42:50;9.70;;;1.85;;
57832;SDS011;43667;53.036;6.740;2023-09-19T12:45:18;10.40;;;2.33;;
57832;SDS011;43667;53.036;6.740;2023-09-19T12:51:10;8.63;;;1.73;;
57832;SDS011;43667;53.036;6.740;2023-09-19T12:56:20;10.00;;;1.83;;
57832;SDS011;43667;53.036;6.740;2023-09-19T12:58:55;7.55;;;2.17;;
57832;SDS011;43667;53.036;6.740;2023-09-19T13:01:23;9.57;;;2.90;;
57832;SDS011;43667;53.036;6.740;2023-09-19T13:04:11;8.23;;;1.73;;
57832;SDS011;43667;53.036;6.740;2023-09-19T13:06:50;12.40;;;2.33;;
57832;SDS011;43667;53.036;6.740;2023-09-19T13:09:17;8.45;;;1.83;;
57832;SDS011;43667;53.036;6.740;2023-09-19T13:11:45;12.88;;;2.13;;
57832;SDS011;43667;53.036;6.740;2023-09-19T13:14:14;9.63;;;1.55;;
57832;SDS011;43667;53.036;6.740;2023-09-19T13:17:03;9.05;;;1.85;;
57832;SDS011;43667;53.036;6.740;2023-09-19T13:19:44;6.30;;;1.52;;
57832;SDS011;43667;53.036;6.740;2023-09-19T13:27:46;9.85;;;1.73;;
57832;SDS011;43667;53.036;6.740;2023-09-19T13:30:25;7.70;;;1.77;;
57832;SDS011;43667;53.036;6.740;2023-09-19T13:33:10;8.90;;;1.55;;
57832;SDS011;43667;53.036;6.740;2023-09-19T13:35:36;10.07;;;1.40;;
57832;SDS011;43667;53.036;6.740;2023-09-19T13:38:05;5.47;;;1.60;;
57832;SDS011;43667;53.036;6.740;2023-09-19T13:40:31;7.07;;;1.25;;
57832;SDS011;43667;53.036;6.740;2023-09-19T13:43:00;8.50;;;1.75;;
57832;SDS011;43667;53.036;6.740;2023-09-19T13:45:26;6.68;;;1.25;;
57832;SDS011;43667;53.036;6.740;2023-09-19T13:47:51;10.05;;;1.33;;
57832;SDS011;43667;53.036;6.740;2023-09-19T13:50:17;8.88;;;1.65;;
57832;SDS011;43667;53.036;6.740;2023-09-19T13:52:48;8.88;;;1.77;;
57832;SDS011;43667;53.036;6.740;2023-09-19T13:55:16;5.93;;;1.42;;
57832;SDS011;43667;53.036;6.740;2023-09-19T13:57:45;7.80;;;1.27;;
57832;SDS011;43667;53.036;6.740;2023-09-19T14:00:19;8.25;;;1.50;;
57832;SDS011;43667;53.036;6.740;2023-09-19T14:02:46;7.50;;;1.60;;
57832;SDS011;43667;53.036;6.740;2023-09-19T14:05:13;4.43;;;1.40;;
57832;SDS011;43667;53.036;6.740;2023-09-19T14:07:40;5.90;;;1.23;;
57832;SDS011;43667;53.036;6.740;2023-09-19T14:10:07;6.13;;;1.80;;
57832;SDS011;43667;53.036;6.740;2023-09-19T14:12:38;8.23;;;1.35;;
57832;SDS011;43667;53.036;6.740;2023-09-19T14:15:08;7.97;;;1.77;;
57832;SDS011;43667;53.036;6.740;2023-09-19T14:17:34;8.05;;;1.48;;
57832;SDS011;43667;53.036;6.740;2023-09-19T14:19:59;9.32;;;1.17;;
57832;SDS011;43667;53.036;6.740;2023-09-19T14:22:25;5.70;;;1.13;;
57832;SDS011;43667;53.036;6.740;2023-09-19T14:24:51;7.68;;;1.27;;
57832;SDS011;43667;53.036;6.740;2023-09-19T14:27:17;5.97;;;1.30;;
57832;SDS011;43667;53.036;6.740;2023-09-19T14:29:43;8.88;;;1.70;;
57832;SDS011;43667;53.036;6.740;2023-09-19T14:32:09;4.20;;;1.30;;
57832;SDS011;43667;53.036;6.740;2023-09-19T14:34:35;10.00;;;1.08;;
57832;SDS011;43667;53.036;6.740;2023-09-19T14:37:06;18.65;;;2.13;;
57832;SDS011;43667;53.036;6.740;2023-09-19T14:39:32;8.73;;;1.25;;
57832;SDS011;43667;53.036;6.740;2023-09-19T14:41:58;6.10;;;1.17;;
57832;SDS011;43667;53.036;6.740;2023-09-19T14:44:24;5.05;;;1.38;;
57832;SDS011;43667;53.036;6.740;2023-09-19T14:46:50;5.63;;;1.40;;
57832;SDS011;43667;53.036;6.740;2023-09-19T14:49:15;7.15;;;1.83;;
57832;SDS011;43667;53.036;6.740;2023-09-19T14:51:41;4.55;;;0.90;;
57832;SDS011;43667;53.036;6.740;2023-09-19T14:54:12;4.05;;;1.05;;
57832;SDS011;43667;53.036;6.740;2023-09-19T14:56:37;8.80;;;1.17;;
57832;SDS011;43667;53.036;6.740;2023-09-19T14:59:04;6.25;;;1.35;;
57832;SDS011;43667;53.036;6.740;2023-09-19T15:01:29;11.05;;;1.95;;
57832;SDS011;43667;53.036;6.740;2023-09-19T15:03:55;2.97;;;1.10;;
57832;SDS011;43667;53.036;6.740;2023-09-19T15:06:21;10.07;;;1.10;;
57832;SDS011;43667;53.036;6.740;2023-09-19T15:08:47;7.93;;;0.90;;
57832;SDS011;43667;53.036;6.740;2023-09-19T15:11:13;7.70;;;1.40;;
57832;SDS011;43667;53.036;6.740;2023-09-19T15:13:41;8.38;;;1.40;;
57832;SDS011;43667;53.036;6.740;2023-09-19T15:16:08;8.60;;;1.13;;
57832;SDS011;43667;53.036;6.740;2023-09-19T15:18:35;6.70;;;1.10;;
57832;SDS011;43667;53.036;6.740;2023-09-19T15:21:04;6.28;;;1.40;;
57832;SDS011;43667;53.036;6.740;2023-09-19T15:23:31;5.45;;;1.05;;
57832;SDS011;43667;53.036;6.740;2023-09-19T15:26:05;5.68;;;1.10;;
57832;SDS011;43667;53.036;6.740;2023-09-19T15:28:45;6.57;;;1.00;;
57832;SDS011;43667;53.036;6.740;2023-09-19T15:31:11;8.20;;;1.13;;
57832;SDS011;43667;53.036;6.740;2023-09-19T15:33:38;8.45;;;1.23;;
57832;SDS011;43667;53.036;6.740;2023-09-19T15:36:05;7.05;;;1.08;;
57832;SDS011;43667;53.036;6.740;2023-09-19T15:41:22;6.40;;;1.15;;
57832;SDS011;43667;53.036;6.740;2023-09-19T15:43:48;3.30;;;0.90;;
57832;SDS011;43667;53.036;6.740;2023-09-19T15:46:15;8.88;;;1.00;;